createdAt,value
2017-09-05T00:01:34.364Z,69.77
2017-09-05T00:04:00.800Z,69.96
2017-09-05T00:06:27.230Z,69.53
2017-09-05T00:08:54.444Z,69.27
2017-09-05T00:11:20.917Z,69.71
2017-09-05T00:13:47.353Z,69.67
2017-09-05T00:16:13.789Z,69.57
2017-09-05T00:18:40.227Z,69.75
2017-09-05T00:21:06.659Z,68.98
2017-09-05T00:23:33.096Z,68.89
2017-09-05T00:26:00.450Z,67.53
2017-09-05T00:28:26.884Z,67.62
2017-09-05T00:30:53.319Z,67.77
2017-09-05T00:33:19.754Z,68.37
2017-09-05T00:35:46.189Z,68.37
2017-09-05T00:38:12.626Z,68.17
2017-09-05T00:43:06.213Z,68.82
2017-09-05T00:45:32.646Z,69.46
2017-09-05T00:47:59.079Z,68.83
2017-09-05T00:50:25.618Z,68.31
2017-09-05T00:52:52.058Z,68.24
2017-09-05T00:55:18.429Z,69.15
2017-09-05T00:57:44.922Z,69.65
2017-09-05T01:00:12.106Z,70.12
2017-09-05T01:02:38.612Z,70.58
2017-09-05T01:05:05.047Z,70.47
2017-09-05T01:07:31.584Z,69.67
2017-09-05T01:09:58.019Z,69.87
2017-09-05T01:12:24.451Z,70.55
2017-09-05T01:14:50.889Z,70.00
2017-09-05T01:17:18.143Z,69.31
2017-09-05T01:19:44.581Z,68.73
2017-09-05T01:22:11.012Z,69.58
2017-09-05T01:24:37.448Z,69.46
2017-09-05T01:27:03.883Z,69.79
2017-09-05T01:29:30.317Z,69.87
2017-09-05T01:31:56.717Z,68.47
2017-09-05T01:34:23.901Z,69.34
2017-09-05T01:36:50.336Z,70.32
2017-09-05T01:39:16.773Z,69.36
2017-09-05T01:41:43.210Z,69.04
2017-09-05T01:44:09.648Z,68.95
2017-09-05T01:46:36.076Z,69.87
2017-09-05T01:49:02.513Z,70.51
2017-09-05T01:51:29.664Z,70.89
2017-09-05T01:53:56.103Z,71.00
2017-09-05T01:56:22.534Z,71.17
2017-09-05T01:58:48.970Z,71.11
2017-09-05T02:01:15.404Z,71.73
2017-09-05T02:03:41.840Z,71.19
2017-09-05T02:06:08.275Z,70.40
2017-09-05T02:08:35.426Z,70.80
2017-09-05T02:11:01.864Z,70.56
2017-09-05T02:13:28.295Z,69.87
2017-09-05T02:15:54.731Z,70.38
2017-09-05T02:18:21.166Z,70.38
2017-09-05T02:20:47.600Z,69.96
2017-09-05T02:23:14.133Z,69.74
2017-09-05T02:25:41.084Z,69.65
2017-09-05T02:28:07.623Z,70.58
2017-09-05T02:30:34.056Z,69.42
2017-09-05T02:33:00.439Z,69.29
2017-09-05T02:35:26.921Z,69.39
2017-09-05T02:37:53.360Z,69.33
2017-09-05T02:40:19.777Z,70.79
2017-09-05T02:42:46.949Z,70.54
2017-09-05T02:45:13.384Z,70.45
2017-09-05T02:47:39.817Z,71.06
2017-09-05T02:50:06.225Z,69.72
2017-09-05T02:52:32.666Z,69.93
2017-09-05T02:54:59.123Z,69.40
2017-09-05T02:57:25.560Z,68.70
2017-09-05T02:59:52.740Z,69.46
2017-09-05T03:02:19.146Z,68.93
2017-09-05T03:04:45.580Z,70.24
2017-09-05T03:07:12.014Z,70.66
2017-09-05T03:09:38.401Z,71.00
2017-09-05T03:12:04.884Z,71.17
2017-09-05T03:14:31.319Z,70.83
2017-09-05T03:16:58.573Z,70.10
2017-09-05T03:19:25.044Z,70.42
2017-09-05T03:21:51.527Z,69.27
2017-09-05T03:24:17.968Z,68.65
2017-09-05T03:26:44.414Z,68.63
2017-09-05T03:29:10.849Z,69.77
2017-09-05T03:31:37.290Z,70.63
2017-09-05T03:34:04.538Z,70.96
2017-09-05T03:36:30.972Z,69.82
2017-09-05T03:38:57.513Z,69.97
2017-09-05T03:41:23.918Z,69.74
2017-09-05T03:43:50.359Z,69.62
2017-09-05T03:46:16.800Z,69.04
2017-09-05T03:48:43.244Z,69.57
2017-09-05T03:51:10.505Z,67.51
2017-09-05T03:53:36.939Z,68.38
2017-09-05T03:56:03.374Z,69.08
2017-09-05T03:58:29.808Z,70.21
2017-09-05T04:00:56.247Z,69.56
2017-09-05T04:03:22.681Z,68.64
2017-09-05T04:05:49.113Z,68.85
2017-09-05T04:08:16.369Z,68.67
2017-09-05T04:15:41.713Z,69.84
2017-09-05T04:18:08.148Z,68.99
2017-09-05T04:20:34.585Z,68.58
2017-09-05T04:23:01.020Z,68.51
2017-09-05T04:25:27.567Z,68.79
2017-09-05T04:27:53.991Z,69.33
2017-09-05T04:30:20.386Z,69.20
2017-09-05T04:32:46.857Z,69.07
2017-09-05T04:35:13.297Z,69.12
2017-09-05T04:37:39.837Z,68.77
2017-09-05T04:40:06.272Z,68.22
2017-09-05T04:42:32.705Z,68.73
2017-09-05T04:44:59.137Z,69.36
2017-09-05T04:47:25.571Z,69.18
2017-09-05T04:49:52.212Z,69.75
2017-09-05T04:52:19.057Z,68.80
2017-09-05T04:54:45.491Z,69.23
2017-09-05T04:57:11.926Z,69.42
2017-09-05T04:59:38.362Z,68.59
2017-09-05T05:02:04.796Z,68.53
2017-09-05T05:04:31.238Z,68.38
2017-09-05T05:06:57.665Z,68.28
2017-09-05T05:09:24.818Z,68.75
2017-09-05T05:11:51.252Z,70.81
2017-09-05T05:14:17.687Z,71.36
2017-09-05T05:16:44.122Z,71.63
2017-09-05T05:19:10.557Z,70.05
2017-09-05T05:21:36.988Z,69.22
2017-09-05T05:24:03.529Z,66.60
2017-09-05T05:26:30.665Z,66.42
2017-09-05T05:28:57.107Z,69.51
2017-09-05T05:31:23.549Z,70.50
2017-09-05T05:33:49.973Z,69.97
2017-09-05T05:36:16.374Z,68.65
2017-09-05T05:38:42.863Z,66.41
2017-09-05T05:41:09.291Z,65.21
2017-09-05T05:43:36.396Z,63.98
2017-09-05T05:46:02.877Z,66.01
2017-09-05T05:48:29.311Z,65.02
2017-09-05T05:50:56.156Z,64.13
2017-09-05T05:53:22.591Z,64.13
2017-09-05T05:55:49.950Z,64.02
2017-09-05T05:58:16.894Z,62.71
2017-09-05T06:00:43.561Z,62.36
2017-09-05T06:03:10.071Z,63.06
2017-09-05T06:05:36.506Z,63.10
2017-09-05T06:08:02.941Z,63.80
2017-09-05T06:10:29.781Z,63.09
2017-09-05T06:12:56.224Z,62.85
2017-09-05T06:15:22.760Z,61.40
2017-09-05T06:17:50.008Z,61.27
2017-09-05T06:20:16.760Z,60.00
2017-09-05T06:22:43.395Z,58.58
2017-09-05T06:25:10.033Z,58.83
2017-09-05T06:27:36.470Z,59.24
2017-09-05T06:30:03.008Z,58.49
2017-09-05T06:32:29.543Z,58.06
2017-09-05T06:34:55.977Z,57.71
2017-09-05T06:37:22.413Z,57.74
2017-09-05T06:39:49.359Z,57.66
2017-09-05T06:42:15.794Z,56.23
2017-09-05T06:44:42.228Z,56.01
2017-09-05T06:47:08.869Z,55.27
2017-09-05T06:49:35.307Z,55.39
2017-09-05T06:52:01.841Z,54.65
2017-09-05T06:54:28.699Z,54.32
2017-09-05T06:56:55.120Z,53.33
2017-09-05T06:59:21.623Z,52.54
2017-09-05T07:01:48.912Z,51.65
2017-09-05T07:04:16.678Z,51.79
2017-09-05T07:06:43.035Z,51.09
2017-09-05T07:09:09.551Z,51.58
2017-09-05T07:11:36.188Z,51.84
2017-09-05T07:14:02.622Z,50.96
2017-09-05T07:16:29.058Z,50.48
2017-09-05T07:18:55.492Z,48.82
2017-09-05T07:21:22.029Z,49.09
2017-09-05T07:23:48.566Z,47.54
2017-09-05T07:26:15.002Z,47.58
2017-09-05T07:28:41.419Z,45.01
2017-09-05T07:31:07.962Z,44.30
2017-09-05T07:33:34.411Z,42.91
2017-09-05T07:36:01.048Z,43.31
2017-09-05T07:38:27.583Z,44.51
2017-09-05T07:40:54.137Z,44.37
2017-09-05T07:43:20.767Z,45.75
2017-09-05T07:45:47.118Z,46.03
2017-09-05T07:48:13.530Z,44.91
2017-09-05T07:50:40.171Z,44.93
2017-09-05T07:53:06.607Z,45.59
2017-09-05T07:55:33.192Z,45.68
2017-09-05T07:57:59.886Z,43.70
2017-09-05T08:00:26.445Z,44.98
2017-09-05T08:02:53.061Z,45.20
2017-09-05T08:05:19.476Z,43.81
2017-09-05T08:07:45.898Z,43.87
2017-09-05T08:10:12.368Z,43.47
2017-09-05T08:12:38.903Z,44.48
2017-09-05T08:15:05.956Z,43.47
2017-09-05T08:17:32.388Z,42.69
2017-09-05T08:19:58.916Z,42.42
2017-09-05T08:22:25.357Z,42.68
2017-09-05T08:24:51.775Z,41.32
2017-09-05T08:27:18.218Z,40.95
2017-09-05T08:29:44.768Z,40.18
2017-09-05T08:32:11.202Z,40.80
2017-09-05T08:34:37.635Z,40.38
2017-09-05T08:37:04.583Z,40.53
2017-09-05T08:39:31.122Z,41.51
2017-09-05T08:41:57.476Z,40.93
2017-09-05T08:44:29.628Z,41.81
2017-09-05T08:46:57.660Z,42.10
2017-09-05T08:49:29.119Z,41.30
2017-09-05T08:51:57.754Z,41.99
2017-09-05T08:54:25.840Z,41.47
2017-09-05T08:56:54.900Z,41.65
2017-09-05T08:59:21.957Z,42.49
2017-09-05T09:01:48.389Z,41.14
2017-09-05T09:04:22.681Z,41.21
2017-09-05T09:06:55.126Z,40.01
2017-09-05T09:09:21.824Z,41.07
2017-09-05T09:11:48.234Z,39.92
2017-09-05T09:14:15.101Z,40.03
2017-09-05T09:16:41.538Z,41.03
2017-09-05T09:19:07.974Z,40.84
2017-09-05T09:21:34.614Z,41.33
2017-09-05T09:24:01.050Z,42.02
2017-09-05T09:26:27.586Z,41.73
2017-09-05T09:28:54.227Z,41.28
2017-09-05T09:31:20.725Z,42.32
2017-09-05T09:33:47.094Z,42.84
2017-09-05T09:36:14.235Z,40.80
2017-09-05T09:38:41.050Z,39.61
2017-09-05T09:41:08.084Z,40.86
2017-09-05T09:43:34.565Z,38.25
2017-09-05T09:46:01.522Z,38.29
2017-09-05T09:48:27.958Z,37.99
2017-09-05T09:50:54.440Z,38.65
2017-09-05T09:53:20.825Z,38.57
2017-09-05T09:55:47.262Z,38.62
2017-09-05T09:58:14.107Z,38.05
2017-09-05T10:00:40.643Z,36.94
2017-09-05T10:03:07.078Z,35.02
2017-09-05T10:05:33.514Z,34.81
2017-09-05T10:08:00.256Z,35.22
2017-09-05T10:10:27.000Z,35.22
2017-09-05T10:12:53.638Z,35.88
2017-09-05T10:15:20.900Z,36.23
2017-09-05T10:17:47.381Z,36.17
2017-09-05T10:20:13.954Z,37.36
2017-09-05T10:22:40.352Z,37.82
2017-09-05T10:25:06.824Z,38.21
2017-09-05T10:27:33.474Z,38.85
2017-09-05T10:30:00.014Z,39.80
2017-09-05T10:32:26.406Z,39.70
2017-09-05T10:34:52.883Z,39.69
2017-09-05T10:37:19.808Z,39.81
2017-09-05T10:39:46.367Z,40.13
2017-09-05T10:42:12.802Z,40.20
2017-09-05T10:44:39.422Z,38.90
2017-09-05T10:47:07.708Z,39.44
2017-09-05T10:49:34.362Z,38.60
2017-09-05T10:52:00.999Z,38.29
2017-09-05T10:54:27.433Z,37.35
2017-09-05T10:56:53.869Z,37.32
2017-09-05T10:59:20.260Z,38.09
2017-09-05T11:01:46.942Z,37.59
2017-09-05T11:04:13.479Z,36.91
2017-09-05T11:06:40.018Z,37.28
2017-09-05T11:09:06.859Z,37.33
2017-09-05T11:11:33.296Z,34.08
2017-09-05T11:13:59.821Z,34.56
2017-09-05T11:16:26.424Z,34.88
2017-09-05T11:18:52.908Z,34.54
2017-09-05T11:21:19.448Z,34.45
2017-09-05T11:23:46.165Z,34.72
2017-09-05T11:26:12.623Z,32.75
2017-09-05T11:28:39.012Z,33.30
2017-09-05T11:31:05.498Z,33.19
2017-09-05T11:33:32.235Z,34.12
2017-09-05T11:35:58.675Z,34.22
2017-09-05T11:38:25.155Z,34.72
2017-09-05T11:40:51.939Z,35.04
2017-09-05T11:43:18.325Z,33.98
2017-09-05T11:45:44.826Z,33.16
2017-09-05T11:48:11.664Z,33.39
2017-09-05T11:50:38.200Z,32.25
2017-09-05T11:53:04.635Z,32.81
2017-09-05T11:55:31.274Z,33.02
2017-09-05T11:57:57.813Z,34.07
2017-09-05T12:00:24.350Z,34.68
2017-09-05T12:02:50.886Z,34.60
2017-09-05T12:05:17.322Z,34.79
2017-09-05T12:07:43.859Z,33.58
2017-09-05T12:10:10.678Z,34.63
2017-09-05T12:12:37.138Z,34.43
2017-09-05T12:15:03.573Z,33.28
2017-09-05T12:17:30.623Z,33.05
2017-09-05T12:19:57.571Z,33.03
2017-09-05T12:22:24.107Z,32.93
2017-09-05T12:24:50.847Z,33.71
2017-09-05T12:27:17.595Z,34.50
2017-09-05T12:29:44.235Z,34.96
2017-09-05T12:32:11.263Z,35.96
2017-09-05T12:34:37.705Z,34.50
2017-09-05T12:37:04.151Z,35.92
2017-09-05T12:39:31.975Z,36.74
2017-09-05T12:41:58.557Z,36.23
2017-09-05T12:44:25.300Z,36.50
2017-09-05T12:46:52.244Z,35.36
2017-09-05T12:49:18.784Z,32.61
2017-09-05T12:51:45.321Z,33.24
2017-09-05T12:54:11.958Z,33.19
2017-09-05T12:56:38.496Z,34.11
2017-09-05T12:59:05.032Z,32.61
2017-09-05T13:01:32.137Z,33.15
2017-09-05T13:03:58.619Z,32.92
2017-09-05T13:06:25.054Z,32.79
2017-09-05T13:08:51.902Z,32.26
2017-09-05T13:11:18.393Z,33.38
2017-09-05T13:13:44.867Z,35.01
2017-09-05T13:16:11.807Z,34.90
2017-09-05T13:18:38.251Z,36.08
2017-09-05T13:21:04.798Z,35.37
2017-09-05T13:23:31.536Z,35.08
2017-09-05T13:25:58.071Z,35.36
2017-09-05T13:28:24.608Z,34.02
2017-09-05T13:30:51.553Z,32.89
2017-09-05T13:33:17.988Z,31.95
2017-09-05T13:35:44.428Z,30.85
2017-09-05T13:38:11.269Z,31.18
2017-09-05T13:40:37.704Z,31.23
2017-09-05T13:43:04.139Z,31.16
2017-09-05T13:45:30.781Z,30.77
2017-09-05T13:47:57.315Z,31.67
2017-09-05T13:50:23.749Z,32.58
2017-09-05T13:52:50.336Z,32.81
2017-09-05T13:55:16.823Z,33.85
2017-09-05T13:57:43.261Z,34.78
2017-09-05T14:00:10.621Z,35.81
2017-09-05T14:02:37.552Z,35.63
2017-09-05T14:05:04.100Z,36.42
2017-09-05T14:07:30.740Z,37.16
2017-09-05T14:09:57.596Z,37.17
2017-09-05T14:12:24.736Z,37.60
2017-09-05T14:14:51.577Z,37.56
2017-09-05T14:17:18.117Z,37.48
2017-09-05T14:19:45.269Z,34.55
2017-09-05T14:22:12.013Z,35.49
2017-09-05T14:24:38.548Z,35.59
2017-09-05T14:27:04.988Z,36.10
2017-09-05T14:29:32.237Z,36.15
2017-09-05T14:31:58.775Z,36.62
2017-09-05T14:34:25.207Z,37.03
2017-09-05T14:36:52.464Z,36.92
2017-09-05T14:39:19.001Z,36.84
2017-09-05T14:41:45.429Z,37.08
2017-09-05T14:44:12.338Z,37.36
2017-09-05T14:46:38.817Z,36.83
2017-09-05T14:49:05.356Z,37.02
2017-09-05T14:51:31.994Z,37.27
2017-09-05T14:53:58.840Z,37.55
2017-09-05T14:56:25.377Z,36.96
2017-09-05T14:58:52.120Z,36.97
2017-09-05T15:01:18.554Z,37.10
2017-09-05T15:03:44.988Z,37.27
2017-09-05T15:06:11.935Z,36.76
2017-09-05T15:08:38.594Z,36.85
2017-09-05T15:11:05.214Z,37.53
2017-09-05T15:13:32.062Z,38.08
2017-09-05T15:15:58.597Z,37.63
2017-09-05T15:18:25.032Z,37.22
2017-09-05T15:20:51.763Z,36.57
2017-09-05T15:23:18.206Z,37.57
2017-09-05T15:25:44.643Z,36.91
2017-09-05T15:28:11.180Z,37.69
2017-09-05T15:30:37.720Z,37.46
2017-09-05T15:33:04.153Z,37.08
2017-09-05T15:35:30.793Z,37.61
2017-09-05T15:37:57.227Z,37.11
2017-09-05T15:40:23.769Z,37.22
2017-09-05T15:42:50.506Z,37.36
2017-09-05T15:45:17.148Z,37.39
2017-09-05T15:47:43.684Z,37.47
2017-09-05T15:50:10.528Z,38.11
2017-09-05T15:52:36.944Z,38.29
2017-09-05T15:55:03.499Z,38.12
2017-09-05T15:57:29.944Z,38.54
2017-09-05T15:59:56.370Z,38.17
2017-09-05T16:02:22.804Z,38.04
2017-09-05T16:04:49.547Z,38.05
2017-09-05T16:07:15.982Z,38.49
2017-09-05T16:09:42.371Z,37.76
2017-09-05T16:12:08.954Z,38.68
2017-09-05T16:14:35.491Z,38.41
2017-09-05T16:17:02.643Z,38.30
2017-09-05T16:19:29.079Z,38.69
2017-09-05T16:21:55.512Z,39.10
2017-09-05T16:24:21.950Z,39.65
2017-09-05T16:26:48.487Z,39.64
2017-09-05T16:29:15.492Z,42.09
2017-09-05T16:31:42.547Z,41.64
2017-09-05T16:34:09.740Z,42.26
2017-09-05T16:36:36.890Z,41.81
2017-09-05T16:39:04.040Z,41.98
2017-09-05T16:41:31.088Z,42.23
2017-09-05T16:43:58.138Z,42.04
2017-09-05T16:46:25.085Z,42.26
2017-09-05T16:48:52.237Z,43.11
2017-09-05T16:51:19.345Z,43.88
2017-09-05T16:53:46.437Z,44.41
2017-09-05T16:56:13.588Z,43.70
2017-09-05T16:58:40.740Z,43.85
2017-09-05T17:01:07.892Z,44.58
2017-09-05T17:03:34.528Z,42.86
2017-09-05T17:06:01.549Z,44.56
2017-09-05T17:08:28.594Z,44.27
2017-09-05T17:10:55.066Z,45.57
2017-09-05T17:13:21.512Z,48.40
2017-09-05T17:15:47.935Z,47.11
2017-09-05T17:18:14.370Z,47.73
2017-09-05T17:20:40.803Z,48.33
2017-09-05T17:23:07.241Z,48.40
2017-09-05T17:25:33.777Z,47.80
2017-09-05T17:28:00.213Z,47.33
2017-09-05T17:30:26.647Z,47.38
2017-09-05T17:32:53.081Z,49.59
2017-09-05T17:35:19.524Z,50.22
2017-09-05T17:37:45.952Z,47.96
2017-09-05T17:40:12.389Z,47.56
2017-09-05T17:42:38.821Z,49.71
2017-09-05T17:45:05.256Z,50.44
2017-09-05T17:47:31.693Z,47.50
2017-09-05T17:49:58.125Z,50.79
2017-09-05T17:52:24.559Z,48.75
2017-09-05T17:54:50.911Z,49.10
2017-09-05T17:57:17.431Z,49.03
2017-09-05T17:59:43.866Z,51.01
2017-09-05T18:02:10.236Z,50.84
2017-09-05T18:04:36.736Z,51.44
2017-09-05T18:07:03.170Z,51.03
2017-09-05T18:09:29.616Z,49.97
2017-09-05T18:11:56.039Z,51.29
2017-09-05T18:14:22.477Z,49.95
2017-09-05T18:16:49.730Z,50.29
2017-09-05T18:19:16.165Z,51.75
2017-09-05T18:21:42.598Z,52.99
2017-09-05T18:24:09.034Z,52.67
2017-09-05T18:26:35.467Z,52.83
2017-09-05T18:29:01.903Z,53.34
2017-09-05T18:31:28.298Z,52.75
2017-09-05T18:33:55.491Z,51.80
2017-09-05T18:36:21.927Z,52.51
2017-09-05T18:38:48.359Z,52.21
2017-09-05T18:41:14.794Z,53.20
2017-09-05T18:43:41.249Z,53.47
2017-09-05T18:46:07.770Z,53.53
2017-09-05T18:48:34.201Z,54.75
2017-09-05T18:51:01.458Z,54.29
2017-09-05T18:53:27.890Z,54.16
2017-09-05T18:55:54.265Z,55.06
2017-09-05T18:58:20.761Z,55.26
2017-09-05T19:00:47.295Z,53.55
2017-09-05T19:03:13.738Z,54.77
2017-09-05T19:05:40.168Z,54.48
2017-09-05T19:08:07.421Z,54.23
2017-09-05T19:10:33.856Z,54.63
2017-09-05T19:13:00.240Z,54.30
2017-09-05T19:15:26.716Z,54.49
2017-09-05T19:17:53.155Z,55.03
2017-09-05T19:20:19.599Z,54.51
2017-09-05T19:22:46.031Z,55.32
2017-09-05T19:25:13.185Z,55.10
2017-09-05T19:27:39.601Z,55.83
2017-09-05T19:30:06.047Z,56.34
2017-09-05T19:32:32.486Z,57.04
2017-09-05T19:34:58.923Z,57.44
2017-09-05T19:37:25.356Z,56.83
2017-09-05T19:39:51.791Z,57.19
2017-09-05T19:42:18.946Z,58.09
2017-09-05T19:44:45.378Z,57.74
2017-09-05T19:47:11.814Z,58.65
2017-09-05T19:49:38.248Z,59.17
2017-09-05T19:52:04.683Z,59.63
2017-09-05T19:54:31.126Z,59.98
2017-09-05T19:56:57.560Z,60.28
2017-09-05T19:59:24.704Z,60.65
2017-09-05T20:01:51.141Z,61.06
2017-09-05T20:04:17.574Z,60.42
2017-09-05T20:06:44.010Z,60.54
2017-09-05T20:09:10.401Z,60.17
2017-09-05T20:11:36.870Z,60.25
2017-09-05T20:14:03.314Z,60.28
2017-09-05T20:16:30.567Z,61.13
2017-09-05T20:18:56.944Z,60.97
2017-09-05T20:21:23.437Z,61.00
2017-09-05T20:23:49.872Z,60.57
2017-09-05T20:26:16.256Z,61.41
2017-09-05T20:28:42.741Z,61.34
2017-09-05T20:31:09.158Z,61.64
2017-09-05T20:33:36.283Z,61.54
2017-09-05T20:36:02.763Z,61.53
2017-09-05T20:38:29.198Z,62.21
2017-09-05T20:40:55.633Z,61.70
2017-09-05T20:43:22.070Z,61.08
2017-09-05T20:45:48.488Z,61.51
2017-09-05T20:48:14.936Z,61.53
2017-09-05T20:50:42.192Z,61.55
2017-09-05T20:53:08.626Z,62.08
2017-09-05T20:55:35.062Z,61.92
2017-09-05T20:58:01.495Z,61.07
2017-09-05T21:00:27.930Z,61.77
2017-09-05T21:02:54.366Z,61.13
2017-09-05T21:05:20.801Z,61.94
2017-09-05T21:07:47.953Z,61.93
2017-09-05T21:10:14.390Z,61.78
2017-09-05T21:12:40.823Z,62.51
2017-09-05T21:15:07.360Z,62.97
2017-09-05T21:17:33.802Z,62.92
2017-09-05T21:20:00.230Z,63.00
2017-09-05T21:22:26.664Z,63.34
2017-09-05T21:24:53.822Z,63.00
2017-09-05T21:27:20.200Z,62.63
2017-09-05T21:29:46.680Z,63.17
2017-09-05T21:32:13.121Z,62.53
2017-09-05T21:34:39.659Z,62.70
2017-09-05T21:37:06.093Z,62.80
2017-09-05T21:39:32.530Z,62.01
2017-09-05T21:41:59.680Z,63.03
2017-09-05T21:44:26.116Z,63.49
2017-09-05T21:46:52.550Z,63.46
2017-09-05T21:49:18.983Z,63.49
2017-09-05T21:51:45.418Z,63.37
2017-09-05T21:54:11.850Z,63.66
2017-09-05T21:56:38.236Z,63.97
2017-09-05T21:59:05.441Z,63.90
2017-09-05T22:01:31.877Z,63.84
2017-09-05T22:03:58.312Z,63.67
2017-09-05T22:06:24.741Z,63.41
2017-09-05T22:08:51.180Z,64.02
2017-09-05T22:11:17.614Z,63.58
2017-09-05T22:13:44.051Z,63.63
2017-09-05T22:16:11.201Z,62.86
2017-09-05T22:18:37.707Z,64.02
2017-09-05T22:21:04.174Z,63.46
2017-09-05T22:23:30.588Z,63.41
2017-09-05T22:25:57.031Z,63.00
2017-09-05T22:28:23.495Z,63.72
2017-09-05T22:30:50.015Z,62.82
2017-09-05T22:33:17.167Z,63.53
2017-09-05T22:35:43.602Z,63.46
2017-09-05T22:38:10.036Z,62.78
2017-09-05T22:40:36.472Z,62.15
2017-09-05T22:43:02.906Z,63.10
2017-09-05T22:45:29.342Z,62.10
2017-09-05T22:47:55.777Z,62.72
2017-09-05T22:50:22.928Z,63.23
2017-09-05T22:52:49.363Z,63.21
2017-09-05T22:55:15.794Z,63.56
2017-09-05T22:57:42.184Z,64.00
2017-09-05T23:00:08.669Z,63.79
2017-09-05T23:02:35.107Z,62.82
2017-09-05T23:05:01.646Z,63.69
2017-09-05T23:07:28.690Z,63.00
2017-09-05T23:09:55.131Z,63.16
2017-09-05T23:12:21.663Z,62.91
2017-09-05T23:14:48.099Z,62.65
2017-09-05T23:17:14.532Z,62.96
2017-09-05T23:19:40.971Z,63.31
2017-09-05T23:22:07.401Z,63.63
2017-09-05T23:24:34.654Z,63.18
2017-09-05T23:27:01.091Z,63.67
2017-09-05T23:29:27.508Z,63.36
2017-09-05T23:31:53.954Z,63.99
2017-09-05T23:34:20.346Z,63.65
2017-09-05T23:36:46.828Z,64.39
2017-09-05T23:39:13.365Z,64.25
2017-09-05T23:41:40.415Z,63.78
2017-09-05T23:44:06.850Z,64.55
2017-09-05T23:46:33.491Z,65.38
2017-09-05T23:48:59.924Z,65.33
2017-09-05T23:51:26.359Z,64.04
2017-09-05T23:53:52.794Z,64.43
2017-09-05T23:56:19.332Z,64.59
2017-09-05T23:58:46.380Z,64.58
